Terminal Aerodrome Forecast
Issued by NWS Springfield, MO

Home | Current Version | Previous Version | Text Only | Print | Product List | Glossary On
Versions: 1 2 3 4 5 6 7 8 9 10 11 12 13 14 15 16 17 18 19 20 21
900
FTUS43 KSGF 261138 CCA
TAFSGF
TAF COR
KSGF 261138Z 2612/2712 08005KT P6SM BKN150
     FM261700 09005KT P6SM VCTS BKN050CB PROB30 2621/2624 4SM -TSRA
      OVC040CB
     FM270100 07005KT 6SM BR SCT250=

USA.gov is the U.S. government's official web portal to all federal, state and local government web resources and services.